Bezoek onze andere website:

Template documentation
and downloads

And another site


METAR rapporten vliegvelden

   
EBBR - Brussels International Airport, Belgium
Afstand tot: W 14 km
Gewijzigd: 19-10-2018 11:20
Grotendeels bewolkt  
Grotendeels bewolkt  
   Wind: NO 9.3 km/h
Wind: NO 9.3 km/h
Temperatuur: 12°C
Dauwpunt: 9°C
Vochtigheid: 82%
Barometer: 1025 hPa
Bewolking: Grotendeels bewolkt
Zicht: 8 km
Bewolking: Grotendeels bewolkt 1000 ft
EBBR 190920Z 04005KT 8000 BKN010 12/09 Q1025 BECMG FEW012
EBBE - Beauvechain (Bevekom), Belgium
Afstand tot: ZZO 17 km
Gewijzigd: 19-10-2018 11:15
Grotendeels bewolkt  
Grotendeels bewolkt  
   Wind: ONO 14.8 km/h
Wind: ONO 14.8 km/h
Temperatuur: 12°C
Dauwpunt: 10°C
Vochtigheid: 88%
Barometer: 1025 hPa
Bewolking: Grotendeels bewolkt
Zicht: 7 km
Bewolking: Grotendeels bewolkt 1200 ft
EBBE 190915Z 06008KT 7000 BKN012 12/10 Q1025 BLACKGRN WHT TEMPO GRN
EBDT - Schaffen, Belgium
Afstand tot: ONO 29 km
Gewijzigd: 19-10-2018 10:55
Grotendeels bewolkt  
Grotendeels bewolkt  
   Wind: NO 5.6 km/h
Wind: NO 5.6 km/h
Temperatuur: 11°C
Dauwpunt: 9°C
Vochtigheid: 88%
Barometer: 1025 hPa
Bewolking: Grotendeels bewolkt
Zicht: 5 km
Bewolking: Grotendeels bewolkt 700 ft
EBDT 190855Z AUTO 05003KT 4600 BKN007/// 11/09 Q1025 GRN
EBAW - Antwerp/Deurne, Belgium
Afstand tot: NNW 38 km
Gewijzigd: 19-10-2018 11:20
Licht bewolkt  
Licht bewolkt  
   Wind: ZO 5.6 km/h
Wind: ZO 5.6 km/h
Temperatuur: 13°C
Dauwpunt: 9°C
Vochtigheid: 77%
Barometer: 1025 hPa
Bewolking: Licht bewolkt
Zicht: meer dan 10 km
Bewolking: Licht bewolkt 4200 ft
EBAW 190920Z 13003KT 100V190 9999 FEW042 13/09 Q1025 NOSIG
EBCI - Charleroi/Gosselies, Belgium
Afstand tot: ZZW 51 km
Gewijzigd: 19-10-2018 11:20
Nevel, Grotendeels bewolkt  
Nevel, Grotendeels bewolkt  
   Wind: ONO 13 km/h
Wind: ONO 13 km/h
Temperatuur: 12°C
Dauwpunt: 10°C
Vochtigheid: 88%
Barometer: 1025 hPa
Bewolking: Grotendeels bewolkt
Zicht: 4 km
Bewolking: Licht bewolkt 500 ft,
Grotendeels bewolkt 600 ft
EBCI 190920Z 07007KT 3500 BR FEW005 BKN006 12/10 Q1025 BECMG 6000 NSW TEMPO BKN005
EBLG - Bierset/Liege, Belgium
Afstand tot: OZO 60 km
Gewijzigd: 19-10-2018 11:20
Grotendeels bewolkt  
Grotendeels bewolkt  
   Wind: ONO 11.1 km/h
Wind: ONO 11.1 km/h
Temperatuur: 13°C
Dauwpunt: 10°C
Vochtigheid: 82%
Barometer: 1024 hPa
Bewolking: Grotendeels bewolkt
Zicht: 6 km
Bewolking: Licht bewolkt 800 ft,
Grotendeels bewolkt 4200 ft
EBLG 190920Z 06006KT 020V090 6000 FEW008 BKN042 13/10 Q1024 NOSIG

Script ontwikkeld door  Saratoga-weather.org Aangepast voor de template door  Weerstation Leuven

U vindt ons ook hier:

Het Weer Aktueel

WeatherCloud

Weather Underground